CYCY

Clyde River Airport

Clyde River, Canada
TAF CYCY 141838Z 1419/1507 14010KT P6SM FEW009 SCT015 BKN070 TEMPO 1419/1424 4SM -SN BR BKN009 OVC015 FM150000 15010KT P6SM SCT015 OVC080 TEMPO 1500/1507 P6SM -SN FEW008 BKN015 OVC080 RMK NXT FCST BY 150100Z
Issued Valid From Valid To
Dec-14 @ 18:38 UTC
(4 hours ago)
Dec-14 @ 19:00 UTC
(3 hours ago)
Dec-15 @ 07:00 UTC
(in 9 hours)
Dec-14 @ 19:00 to Dec-15 @ 00:00
TAF CYCY 141838Z 1419/1507 14010KT P6SM FEW009 SCT015 BKN070
Wind Visibility Clouds
140° at 10 knots Greater than 6 miles
  • Few at 900' AGL
  • Scattered at 1,500' AGL
  • Broken at 7,000' AGL
Temporary Dec-14 @ 19:00 to Dec-15 @ 00:00
TEMPO 1419/1424 4SM -SN BR BKN009 OVC015
Visibility Clouds Conditions
4 miles
  • Broken at 900' AGL
  • Overcast at 1,500' AGL
  • Light Snow
  • Mist
Temporary Dec-15 @ 00:00 to Dec-15 @ 07:00
TEMPO 1500/1507 P6SM -SN FEW008 BKN015 OVC080 RMK NXT FCST BY 150100Z
Visibility Clouds Conditions
Greater than 6 miles
  • Few at 800' AGL
  • Broken at 1,500' AGL
  • Overcast at 8,000' AGL
  • Light Snow
From Dec-15 @ 00:00 to Dec-15 @ 07:00
FM150000 15010KT P6SM SCT015 OVC080
Wind Visibility Clouds
150° at 10 knots Greater than 6 miles
  • Scattered at 1,500' AGL
  • Overcast at 8,000' AGL
TAF CYCY 141838Z 1419/1507 14010KT P6SM FEW009 SCT015 BKN070 TEMPO 1419/1424 4SM -SN BR BKN009 OVC015 FM150000 15010KT P6SM SCT015 OVC080 TEMPO 1500/1507 P6SM -SN FEW008 BKN015 OVC080 RMK NXT FCST BY 150100Z
Issued Dec-14 @ 18:38 UTC
(4 hours ago)
Valid From Dec-14 @ 19:00 UTC
(3 hours ago)
Valid To Dec-15 @ 07:00 UTC
(in 9 hours)
Dec-14 @ 19:00 - Dec-15 @ 00:00
Wind Visibility
140° at 10 knots Greater than 6 miles
Clouds
  • Few at 900' AGL
  • Scattered at 1,500' AGL
  • Broken at 7,000' AGL
Temporary Dec-14 @ 19:00 - Dec-15 @ 00:00
Clouds
  • Broken at 900' AGL
  • Overcast at 1,500' AGL
Conditions
  • Light Snow
  • Mist
Temporary Dec-15 @ 00:00 - Dec-15 @ 07:00
Clouds
  • Few at 800' AGL
  • Broken at 1,500' AGL
  • Overcast at 8,000' AGL
Conditions
  • Light Snow
From Dec-15 @ 00:00 - Dec-15 @ 07:00
Wind Visibility
150° at 10 knots Greater than 6 miles
Clouds
  • Scattered at 1,500' AGL
  • Overcast at 8,000' AGL